createdAt,value
2023-02-19T00:02:12.210Z,100.00
2023-02-19T00:07:16.587Z,100.00
2023-02-19T00:12:20.517Z,100.00
2023-02-19T00:17:24.292Z,100.00
2023-02-19T00:22:30.952Z,100.00
2023-02-19T00:27:34.787Z,100.00
2023-02-19T00:32:38.532Z,100.00
2023-02-19T00:37:42.374Z,100.00
2023-02-19T00:42:46.717Z,100.00
2023-02-19T00:47:53.851Z,100.00
2023-02-19T00:52:57.497Z,100.00
2023-02-19T00:58:01.465Z,100.00
2023-02-19T01:03:06.330Z,100.00
2023-02-19T01:08:10.129Z,100.00
2023-02-19T01:13:13.926Z,100.00
2023-02-19T01:18:17.625Z,100.00
2023-02-19T01:23:21.698Z,100.00
2023-02-19T01:28:25.554Z,100.00
2023-02-19T01:33:32.752Z,100.00
2023-02-19T01:38:36.524Z,100.00
2023-02-19T01:44:01.974Z,100.00
2023-02-19T01:49:11.301Z,100.00
2023-02-19T01:54:18.398Z,100.00
2023-02-19T01:59:22.381Z,100.00
2023-02-19T02:04:26.610Z,100.00
2023-02-19T02:09:50.425Z,100.00
2023-02-19T02:14:54.286Z,100.00
2023-02-19T02:20:16.997Z,100.00
2023-02-19T02:25:32.873Z,100.00
2023-02-19T02:31:00.215Z,100.00
2023-02-19T02:36:08.262Z,100.00
2023-02-19T02:41:14.803Z,100.00
2023-02-19T02:46:29.072Z,100.00
2023-02-19T02:51:40.792Z,100.00
2023-02-19T02:56:51.235Z,100.00
2023-02-19T03:02:12.648Z,100.00
2023-02-19T03:07:16.851Z,100.00
2023-02-19T03:12:43.341Z,100.00
2023-02-19T03:18:12.338Z,100.00
2023-02-19T03:23:18.202Z,100.00
2023-02-19T03:28:45.229Z,100.00
2023-02-19T03:34:00.174Z,100.00
2023-02-19T03:39:06.607Z,100.00
2023-02-19T03:44:21.747Z,100.00
2023-02-19T03:49:33.255Z,100.00
2023-02-19T03:54:51.497Z,100.00
2023-02-19T04:00:16.502Z,100.00
2023-02-19T04:05:25.224Z,100.00
2023-02-19T04:10:30.497Z,100.00
2023-02-19T04:15:37.111Z,100.00
2023-02-19T04:20:45.338Z,100.00
2023-02-19T04:25:52.541Z,100.00
2023-02-19T04:31:02.280Z,100.00
2023-02-19T04:36:10.162Z,100.00
2023-02-19T04:41:14.126Z,100.00
2023-02-19T04:46:20.903Z,100.00
2023-02-19T04:51:24.849Z,100.00
2023-02-19T04:56:28.680Z,100.00
2023-02-19T05:01:32.423Z,100.00
2023-02-19T05:06:36.493Z,100.00
2023-02-19T05:11:40.309Z,100.00
2023-02-19T05:16:44.098Z,100.00
2023-02-19T05:21:48.532Z,100.00
2023-02-19T05:26:55.466Z,100.00
2023-02-19T05:31:59.312Z,100.00
2023-02-19T05:37:03.340Z,100.00
2023-02-19T05:42:07.187Z,100.00
2023-02-19T05:47:11.106Z,100.00
2023-02-19T05:52:15.120Z,100.00
2023-02-19T05:57:20.776Z,100.00
2023-02-19T06:02:24.850Z,100.00
2023-02-19T06:07:29.033Z,100.00
2023-02-19T06:12:38.424Z,100.00
2023-02-19T06:17:42.342Z,100.00
2023-02-19T06:22:46.136Z,100.00
2023-02-19T06:27:59.178Z,100.00
2023-02-19T06:33:04.452Z,100.00
2023-02-19T06:38:15.233Z,100.00
2023-02-19T06:43:19.213Z,100.00
2023-02-19T06:48:23.487Z,100.00
2023-02-19T06:53:28.195Z,100.00
2023-02-19T06:58:32.989Z,100.00
2023-02-19T07:03:37.480Z,100.00
2023-02-19T07:08:41.601Z,100.00
2023-02-19T07:13:45.415Z,100.00
2023-02-19T07:19:00.362Z,100.00
2023-02-19T07:24:08.250Z,100.00
2023-02-19T07:29:12.166Z,100.00
2023-02-19T07:34:16.156Z,100.00
2023-02-19T07:39:20.312Z,100.00
2023-02-19T07:44:29.522Z,100.00
2023-02-19T07:49:34.370Z,100.00
2023-02-19T07:54:41.137Z,100.00
2023-02-19T07:59:44.838Z,100.00
2023-02-19T08:04:48.873Z,100.00
2023-02-19T08:10:12.560Z,100.00
2023-02-19T08:15:16.671Z,100.00
2023-02-19T08:20:23.235Z,100.00
2023-02-19T08:25:27.096Z,100.00
2023-02-19T08:30:32.511Z,100.00
2023-02-19T08:35:37.025Z,100.00
2023-02-19T08:40:41.481Z,100.00
2023-02-19T08:45:48.269Z,100.00
2023-02-19T08:51:09.248Z,100.00
2023-02-19T08:56:17.830Z,100.00
2023-02-19T09:01:25.118Z,100.00
2023-02-19T09:06:29.231Z,100.00
2023-02-19T09:11:36.013Z,100.00
2023-02-19T09:16:44.939Z,100.00
2023-02-19T09:21:48.765Z,100.00
2023-02-19T09:26:57.638Z,100.00
2023-02-19T09:32:05.065Z,100.00
2023-02-19T09:37:11.342Z,100.00
2023-02-19T09:42:34.484Z,100.00
2023-02-19T09:47:46.394Z,100.00
2023-02-19T09:53:04.385Z,100.00
2023-02-19T09:58:42.387Z,100.00
2023-02-19T10:03:51.508Z,100.00
2023-02-19T10:09:40.469Z,100.00
2023-02-19T10:14:49.913Z,100.00
2023-02-19T10:19:54.484Z,100.00
2023-02-19T10:24:59.282Z,100.00
2023-02-19T10:30:04.033Z,100.00
2023-02-19T10:35:09.576Z,100.00
2023-02-19T10:40:18.228Z,100.00
2023-02-19T10:45:40.180Z,100.00
2023-02-19T10:50:50.052Z,99.46
2023-02-19T10:56:17.622Z,99.97
2023-02-19T11:01:28.980Z,99.99
2023-02-19T11:06:34.955Z,99.61
2023-02-19T11:11:44.592Z,100.00
2023-02-19T11:17:12.509Z,99.97
2023-02-19T11:22:37.013Z,98.65
2023-02-19T11:28:09.997Z,98.14
2023-02-19T11:33:38.391Z,98.70
2023-02-19T11:38:43.253Z,98.61
2023-02-19T11:44:00.355Z,97.11
2023-02-19T11:49:25.001Z,97.63
2023-02-19T11:54:45.306Z,96.07
2023-02-19T12:00:04.834Z,96.93
2023-02-19T12:05:43.036Z,90.71
2023-02-19T12:11:26.832Z,93.98
2023-02-19T12:16:52.859Z,94.64
2023-02-19T12:22:22.645Z,87.07
2023-02-19T12:27:52.218Z,85.39
2023-02-19T12:33:01.470Z,85.78
2023-02-19T12:38:20.965Z,89.08
2023-02-19T12:43:27.644Z,87.89
2023-02-19T12:48:50.264Z,86.38
2023-02-19T12:54:04.202Z,85.01
2023-02-19T12:59:19.825Z,86.65
2023-02-19T13:04:45.458Z,83.82
2023-02-19T13:10:23.740Z,85.30
2023-02-19T13:15:42.314Z,82.27
2023-02-19T13:20:48.430Z,85.73
2023-02-19T13:26:24.501Z,81.43
2023-02-19T13:32:06.594Z,81.50
2023-02-19T13:37:14.216Z,79.28
2023-02-19T13:42:41.797Z,80.23
2023-02-19T13:48:29.601Z,80.51
2023-02-19T13:53:44.169Z,77.26
2023-02-19T13:58:56.288Z,74.44
2023-02-19T14:04:13.163Z,75.66
2023-02-19T14:09:45.560Z,75.11
2023-02-19T14:14:52.710Z,77.52
2023-02-19T14:20:39.077Z,79.12
2023-02-19T14:26:08.187Z,77.95
2023-02-19T14:31:25.239Z,76.75
2023-02-19T14:36:34.091Z,74.76
2023-02-19T14:41:41.876Z,76.33
2023-02-19T14:47:18.861Z,76.63
2023-02-19T14:52:29.308Z,77.00
2023-02-19T14:57:57.805Z,76.76
2023-02-19T15:03:08.517Z,77.39
2023-02-19T15:08:22.001Z,77.74
2023-02-19T15:13:35.481Z,78.20
2023-02-19T15:18:49.523Z,77.57
2023-02-19T15:24:09.551Z,77.49
2023-02-19T15:29:28.292Z,78.92
2023-02-19T15:34:50.563Z,77.88
2023-02-19T15:40:10.906Z,79.24
2023-02-19T15:45:41.228Z,78.49
2023-02-19T15:50:55.196Z,79.10
2023-02-19T15:56:38.112Z,80.43
2023-02-19T16:01:50.659Z,80.41
2023-02-19T16:07:22.134Z,80.66
2023-02-19T16:12:36.885Z,80.88
2023-02-19T16:17:50.509Z,81.47
2023-02-19T16:23:04.126Z,81.70
2023-02-19T16:28:22.784Z,82.12
2023-02-19T16:33:58.520Z,82.00
2023-02-19T16:39:17.511Z,81.89
2023-02-19T16:44:37.158Z,81.83
2023-02-19T16:50:05.383Z,82.10
2023-02-19T16:55:16.120Z,82.37
2023-02-19T17:00:35.480Z,82.55
2023-02-19T17:05:45.827Z,82.50
2023-02-19T17:10:56.132Z,82.82
2023-02-19T17:16:05.192Z,82.59
2023-02-19T17:21:22.991Z,82.67
2023-02-19T17:26:44.722Z,82.59
2023-02-19T17:31:57.928Z,82.53
2023-02-19T17:37:07.526Z,82.91
2023-02-19T17:42:26.521Z,82.80
2023-02-19T17:47:42.039Z,83.64
2023-02-19T17:52:48.624Z,83.70
2023-02-19T17:57:55.345Z,83.58
2023-02-19T18:03:02.385Z,83.93
2023-02-19T18:08:10.425Z,84.03
2023-02-19T18:13:17.306Z,84.33
2023-02-19T18:18:29.537Z,84.57
2023-02-19T18:23:35.657Z,84.34
2023-02-19T18:28:44.762Z,84.44
2023-02-19T18:34:01.014Z,84.50
2023-02-19T18:39:08.568Z,84.48
2023-02-19T18:44:25.121Z,84.00
2023-02-19T18:49:34.317Z,83.87
2023-02-19T18:54:42.332Z,84.15
2023-02-19T18:59:59.533Z,83.87
2023-02-19T19:05:08.231Z,84.47
2023-02-19T19:10:20.099Z,84.95
2023-02-19T19:15:27.084Z,84.76
2023-02-19T19:20:35.869Z,84.81
2023-02-19T19:25:42.000Z,85.04
2023-02-19T19:30:48.563Z,85.25
2023-02-19T19:35:56.446Z,85.44
2023-02-19T19:41:07.210Z,85.45
2023-02-19T19:46:13.431Z,85.67
2023-02-19T19:51:21.261Z,86.34
2023-02-19T19:56:26.854Z,86.09
2023-02-19T20:01:33.186Z,86.39
2023-02-19T20:06:39.428Z,86.60
2023-02-19T20:11:50.161Z,86.72
2023-02-19T20:16:57.511Z,86.70
2023-02-19T20:22:07.295Z,86.55
2023-02-19T20:27:12.594Z,86.88
2023-02-19T20:32:22.873Z,87.22
2023-02-19T20:37:29.606Z,87.42
2023-02-19T20:42:34.854Z,87.24
2023-02-19T20:47:41.626Z,87.30
2023-02-19T20:52:51.456Z,87.09
2023-02-19T20:57:56.944Z,87.14
2023-02-19T21:03:03.058Z,87.34
2023-02-19T21:08:09.447Z,87.40
2023-02-19T21:13:18.161Z,87.89
2023-02-19T21:18:25.516Z,88.16
2023-02-19T21:23:32.564Z,88.82
2023-02-19T21:28:43.475Z,88.96
2023-02-19T21:33:48.158Z,89.13
2023-02-19T21:38:54.045Z,89.07
2023-02-19T21:43:59.401Z,89.07
2023-02-19T21:49:04.868Z,89.28
2023-02-19T21:54:09.940Z,89.23
2023-02-19T21:59:15.249Z,89.26
2023-02-19T22:04:22.681Z,89.33
2023-02-19T22:09:26.677Z,89.20
2023-02-19T22:14:32.192Z,89.37
2023-02-19T22:19:36.312Z,89.62
2023-02-19T22:24:41.573Z,89.86
2023-02-19T22:29:45.533Z,89.69
2023-02-19T22:34:49.305Z,89.69
2023-02-19T22:39:53.254Z,89.62
2023-02-19T22:44:57.065Z,89.82
2023-02-19T22:50:00.859Z,90.32
2023-02-19T22:55:04.967Z,90.66
2023-02-19T23:00:15.932Z,90.68
2023-02-19T23:05:19.776Z,90.47
2023-02-19T23:10:24.538Z,90.53
2023-02-19T23:15:28.272Z,90.51
2023-02-19T23:20:32.253Z,90.95
2023-02-19T23:25:36.128Z,91.24
2023-02-19T23:30:40.267Z,90.98
2023-02-19T23:35:44.500Z,91.32
2023-02-19T23:40:49.131Z,91.45
2023-02-19T23:45:53.101Z,91.92
2023-02-19T23:50:57.098Z,91.73
2023-02-19T23:56:00.892Z,91.74
